sensor_id;sensor_type;location;lat;lon;timestamp;pressure;altitude;pressure_sealevel;temperature;humidity
39793;BME280;26080;42.264;24.536;2023-10-09T00:00:59;99584.97;;;20.17;67.63
39793;BME280;26080;42.264;24.536;2023-10-09T00:03:29;99579.44;;;20.08;67.95
39793;BME280;26080;42.264;24.536;2023-10-09T00:05:55;99582.84;;;19.99;68.03
39793;BME280;26080;42.264;24.536;2023-10-09T00:08:21;99583.72;;;19.89;68.76
39793;BME280;26080;42.264;24.536;2023-10-09T00:10:51;99580.25;;;19.77;68.86
39793;BME280;26080;42.264;24.536;2023-10-09T00:13:26;99581.09;;;19.77;67.46
39793;BME280;26080;42.264;24.536;2023-10-09T00:16:04;99585.66;;;19.87;66.45
39793;BME280;26080;42.264;24.536;2023-10-09T00:18:34;99581.66;;;19.92;64.96
39793;BME280;26080;42.264;24.536;2023-10-09T00:21:00;99563.66;;;19.96;64.31
39793;BME280;26080;42.264;24.536;2023-10-09T00:23:36;99566.53;;;20.04;63.86
39793;BME280;26080;42.264;24.536;2023-10-09T00:26:02;99565.53;;;20.16;62.47
39793;BME280;26080;42.264;24.536;2023-10-09T00:28:37;99559.00;;;20.09;61.98
39793;BME280;26080;42.264;24.536;2023-10-09T00:31:04;99557.84;;;20.02;62.33
39793;BME280;26080;42.264;24.536;2023-10-09T00:33:36;99580.63;;;20.16;62.25
39793;BME280;26080;42.264;24.536;2023-10-09T00:36:05;99552.44;;;19.92;62.96
39793;BME280;26080;42.264;24.536;2023-10-09T00:38:42;99574.41;;;20.26;62.23
39793;BME280;26080;42.264;24.536;2023-10-09T00:41:15;99579.78;;;20.15;62.76
39793;BME280;26080;42.264;24.536;2023-10-09T00:43:51;99585.09;;;20.15;62.32
39793;BME280;26080;42.264;24.536;2023-10-09T00:46:19;99590.53;;;20.13;62.75
39793;BME280;26080;42.264;24.536;2023-10-09T00:48:47;99597.06;;;20.09;62.79
39793;BME280;26080;42.264;24.536;2023-10-09T00:51:13;99602.28;;;20.00;62.94
39793;BME280;26080;42.264;24.536;2023-10-09T00:53:45;99567.69;;;19.79;63.47
39793;BME280;26080;42.264;24.536;2023-10-09T00:56:15;99596.91;;;19.90;64.12
39793;BME280;26080;42.264;24.536;2023-10-09T00:58:48;99596.53;;;19.83;64.45
39793;BME280;26080;42.264;24.536;2023-10-09T01:01:21;99597.63;;;19.81;64.53
39793;BME280;26080;42.264;24.536;2023-10-09T01:03:51;99601.75;;;19.74;65.25
39793;BME280;26080;42.264;24.536;2023-10-09T01:06:17;99601.66;;;19.64;65.86
39793;BME280;26080;42.264;24.536;2023-10-09T01:08:46;99597.06;;;19.55;66.34
39793;BME280;26080;42.264;24.536;2023-10-09T01:11:31;99602.38;;;19.33;67.62
39793;BME280;26080;42.264;24.536;2023-10-09T01:13:57;99611.50;;;19.29;67.63
39793;BME280;26080;42.264;24.536;2023-10-09T01:16:34;99607.91;;;19.07;68.73
39793;BME280;26080;42.264;24.536;2023-10-09T01:19:00;99622.19;;;18.82;69.91
39793;BME280;26080;42.264;24.536;2023-10-09T01:21:31;99619.50;;;18.47;71.87
39793;BME280;26080;42.264;24.536;2023-10-09T01:23:57;99629.00;;;18.15;73.41
39793;BME280;26080;42.264;24.536;2023-10-09T01:28:58;99616.59;;;17.91;75.54
39793;BME280;26080;42.264;24.536;2023-10-09T01:31:25;99620.06;;;17.92;75.38
39793;BME280;26080;42.264;24.536;2023-10-09T01:34:03;99628.88;;;17.92;75.79
39793;BME280;26080;42.264;24.536;2023-10-09T01:36:35;99634.63;;;17.86;76.24
39793;BME280;26080;42.264;24.536;2023-10-09T01:39:04;99610.50;;;17.53;76.98
39793;BME280;26080;42.264;24.536;2023-10-09T01:41:53;99639.75;;;17.38;78.38
39793;BME280;26080;42.264;24.536;2023-10-09T01:44:27;99642.41;;;17.26;79.37
39793;BME280;26080;42.264;24.536;2023-10-09T01:47:03;99651.50;;;17.22;79.71
39793;BME280;26080;42.264;24.536;2023-10-09T01:49:39;99657.13;;;17.04;80.51
39793;BME280;26080;42.264;24.536;2023-10-09T01:52:08;99657.50;;;16.85;81.80
39793;BME280;26080;42.264;24.536;2023-10-09T01:54:41;99669.88;;;16.72;83.00
39793;BME280;26080;42.264;24.536;2023-10-09T01:57:08;99657.63;;;16.57;84.08
39793;BME280;26080;42.264;24.536;2023-10-09T01:59:43;99640.06;;;16.56;83.72
39793;BME280;26080;42.264;24.536;2023-10-09T02:02:13;99673.38;;;16.73;84.46
39793;BME280;26080;42.264;24.536;2023-10-09T02:04:55;99676.13;;;16.84;84.64
39793;BME280;26080;42.264;24.536;2023-10-09T02:07:30;99678.91;;;16.95;83.93
39793;BME280;26080;42.264;24.536;2023-10-09T02:10:06;99684.31;;;16.94;83.48
39793;BME280;26080;42.264;24.536;2023-10-09T02:12:37;99697.66;;;17.05;82.91
39793;BME280;26080;42.264;24.536;2023-10-09T02:15:06;99696.59;;;17.07;83.37
39793;BME280;26080;42.264;24.536;2023-10-09T02:17:41;99701.16;;;17.05;83.43
39793;BME280;26080;42.264;24.536;2023-10-09T02:20:17;99710.47;;;17.11;83.34
39793;BME280;26080;42.264;24.536;2023-10-09T02:22:44;99711.97;;;17.15;82.77
39793;BME280;26080;42.264;24.536;2023-10-09T02:25:09;99722.13;;;17.08;82.61
39793;BME280;26080;42.264;24.536;2023-10-09T02:27:36;99728.81;;;17.14;82.76
39793;BME280;26080;42.264;24.536;2023-10-09T02:30:18;99722.31;;;17.05;83.03
39793;BME280;26080;42.264;24.536;2023-10-09T02:33:06;99740.06;;;16.91;83.12
39793;BME280;26080;42.264;24.536;2023-10-09T02:35:34;99743.41;;;16.80;84.03
39793;BME280;26080;42.264;24.536;2023-10-09T02:38:08;99746.47;;;16.74;84.46
39793;BME280;26080;42.264;24.536;2023-10-09T02:40:36;99752.91;;;16.70;84.12
39793;BME280;26080;42.264;24.536;2023-10-09T02:43:32;99761.69;;;16.70;84.12
39793;BME280;26080;42.264;24.536;2023-10-09T02:46:17;99770.56;;;16.69;84.25
39793;BME280;26080;42.264;24.536;2023-10-09T02:48:49;99770.84;;;16.65;83.98
39793;BME280;26080;42.264;24.536;2023-10-09T02:51:25;99769.72;;;16.54;84.15
39793;BME280;26080;42.264;24.536;2023-10-09T02:53:54;99751.66;;;16.34;83.96
39793;BME280;26080;42.264;24.536;2023-10-09T02:56:20;99780.44;;;16.39;84.15
39793;BME280;26080;42.264;24.536;2023-10-09T02:58:53;99780.84;;;16.33;84.53
39793;BME280;26080;42.264;24.536;2023-10-09T03:01:18;99786.59;;;16.25;85.37
39793;BME280;26080;42.264;24.536;2023-10-09T03:03:44;99795.94;;;16.16;85.38
39793;BME280;26080;42.264;24.536;2023-10-09T03:06:16;99805.50;;;16.19;85.50
39793;BME280;26080;42.264;24.536;2023-10-09T03:08:50;99830.22;;;16.18;85.56
39793;BME280;26080;42.264;24.536;2023-10-09T03:11:16;99840.78;;;16.18;86.53
39793;BME280;26080;42.264;24.536;2023-10-09T03:13:44;99845.50;;;16.13;86.22
39793;BME280;26080;42.264;24.536;2023-10-09T03:16:11;99856.34;;;16.08;87.04
39793;BME280;26080;42.264;24.536;2023-10-09T03:18:40;99855.00;;;16.01;86.76
39793;BME280;26080;42.264;24.536;2023-10-09T03:21:05;99859.34;;;15.88;85.48
39793;BME280;26080;42.264;24.536;2023-10-09T03:23:31;99855.69;;;15.60;83.71
39793;BME280;26080;42.264;24.536;2023-10-09T03:25:57;99865.34;;;15.46;84.23
39793;BME280;26080;42.264;24.536;2023-10-09T03:28:24;99857.13;;;15.36;83.96
39793;BME280;26080;42.264;24.536;2023-10-09T03:30:49;99871.84;;;15.40;83.61
39793;BME280;26080;42.264;24.536;2023-10-09T03:33:16;99877.41;;;15.35;83.81
39793;BME280;26080;42.264;24.536;2023-10-09T03:35:42;99884.56;;;15.18;84.37
39793;BME280;26080;42.264;24.536;2023-10-09T03:38:09;99897.00;;;15.16;83.89
39793;BME280;26080;42.264;24.536;2023-10-09T03:40:43;99908.84;;;15.08;84.83
39793;BME280;26080;42.264;24.536;2023-10-09T03:43:11;99906.72;;;14.99;84.53
39793;BME280;26080;42.264;24.536;2023-10-09T03:45:37;99914.63;;;14.99;83.91
39793;BME280;26080;42.264;24.536;2023-10-09T03:48:05;99902.38;;;14.98;83.69
39793;BME280;26080;42.264;24.536;2023-10-09T03:50:46;99916.50;;;14.97;83.07
39793;BME280;26080;42.264;24.536;2023-10-09T03:53:11;99921.00;;;14.95;83.02
39793;BME280;26080;42.264;24.536;2023-10-09T03:55:38;99916.22;;;14.86;82.71
39793;BME280;26080;42.264;24.536;2023-10-09T03:58:05;99914.72;;;14.82;82.04
39793;BME280;26080;42.264;24.536;2023-10-09T04:00:32;99921.91;;;14.78;82.26
39793;BME280;26080;42.264;24.536;2023-10-09T04:03:06;99920.97;;;14.79;81.91
39793;BME280;26080;42.264;24.536;2023-10-09T04:05:32;99926.41;;;14.61;83.78
39793;BME280;26080;42.264;24.536;2023-10-09T04:07:57;99912.81;;;14.35;84.76
39793;BME280;26080;42.264;24.536;2023-10-09T04:10:26;99953.41;;;14.48;84.35
39793;BME280;26080;42.264;24.536;2023-10-09T04:13:17;99951.25;;;14.57;83.26
39793;BME280;26080;42.264;24.536;2023-10-09T04:15:47;99947.22;;;14.49;82.43
39793;BME280;26080;42.264;24.536;2023-10-09T04:18:15;99958.84;;;14.45;81.06
39793;BME280;26080;42.264;24.536;2023-10-09T04:20:41;99966.84;;;14.44;79.45
39793;BME280;26080;42.264;24.536;2023-10-09T04:23:10;99947.09;;;14.18;79.42
39793;BME280;26080;42.264;24.536;2023-10-09T04:25:41;99965.06;;;14.27;79.03
39793;BME280;26080;42.264;24.536;2023-10-09T04:28:08;99972.38;;;14.38;78.22
39793;BME280;26080;42.264;24.536;2023-10-09T04:30:40;99978.06;;;14.30;79.47
39793;BME280;26080;42.264;24.536;2023-10-09T04:33:10;99980.38;;;14.36;78.59
39793;BME280;26080;42.264;24.536;2023-10-09T04:36:07;99974.81;;;14.42;76.56
39793;BME280;26080;42.264;24.536;2023-10-09T04:38:52;99982.78;;;14.41;76.48
39793;BME280;26080;42.264;24.536;2023-10-09T04:41:24;99975.81;;;14.40;76.17
39793;BME280;26080;42.264;24.536;2023-10-09T04:44:19;99974.16;;;14.37;76.17
39793;BME280;26080;42.264;24.536;2023-10-09T04:46:45;99992.94;;;14.31;76.81
39793;BME280;26080;42.264;24.536;2023-10-09T04:49:31;99998.69;;;14.22;78.08
39793;BME280;26080;42.264;24.536;2023-10-09T04:52:11;99991.94;;;14.34;76.14
39793;BME280;26080;42.264;24.536;2023-10-09T04:54:45;99965.06;;;14.27;75.09
39793;BME280;26080;42.264;24.536;2023-10-09T04:57:29;99990.31;;;14.31;74.74
39793;BME280;26080;42.264;24.536;2023-10-09T04:59:54;99993.41;;;14.22;74.78
39793;BME280;26080;42.264;24.536;2023-10-09T05:02:24;99982.81;;;14.06;73.12
39793;BME280;26080;42.264;24.536;2023-10-09T05:04:49;99997.84;;;14.21;71.41
39793;BME280;26080;42.264;24.536;2023-10-09T05:07:37;100007.84;;;14.15;69.43
39793;BME280;26080;42.264;24.536;2023-10-09T05:10:20;99998.31;;;14.12;69.92
39793;BME280;26080;42.264;24.536;2023-10-09T05:12:50;100007.84;;;14.15;68.56
39793;BME280;26080;42.264;24.536;2023-10-09T05:15:23;100021.31;;;14.09;69.90
39793;BME280;26080;42.264;24.536;2023-10-09T05:17:53;100030.06;;;14.09;69.67
39793;BME280;26080;42.264;24.536;2023-10-09T05:20:23;100030.91;;;14.10;69.01
39793;BME280;26080;42.264;24.536;2023-10-09T05:22:48;100039.06;;;14.05;68.71
39793;BME280;26080;42.264;24.536;2023-10-09T05:25:27;100027.56;;;13.89;68.27
39793;BME280;26080;42.264;24.536;2023-10-09T05:28:11;100041.84;;;13.85;68.89
39793;BME280;26080;42.264;24.536;2023-10-09T05:30:55;100055.34;;;13.77;69.10
39793;BME280;26080;42.264;24.536;2023-10-09T05:33:36;100055.84;;;13.85;70.42
39793;BME280;26080;42.264;24.536;2023-10-09T05:36:04;100043.19;;;13.75;67.65
39793;BME280;26080;42.264;24.536;2023-10-09T05:38:48;100075.47;;;13.78;68.16
39793;BME280;26080;42.264;24.536;2023-10-09T05:41:24;100091.47;;;13.92;66.77
39793;BME280;26080;42.264;24.536;2023-10-09T05:44:10;100100.91;;;13.97;66.43
39793;BME280;26080;42.264;24.536;2023-10-09T05:46:54;100106.06;;;14.00;65.84
39793;BME280;26080;42.264;24.536;2023-10-09T05:49:38;100108.69;;;14.00;64.31
39793;BME280;26080;42.264;24.536;2023-10-09T05:55:18;100101.00;;;13.95;63.23
39793;BME280;26080;42.264;24.536;2023-10-09T05:57:58;100110.84;;;13.91;61.80
39793;BME280;26080;42.264;24.536;2023-10-09T06:00:44;100114.94;;;13.97;61.20
39793;BME280;26080;42.264;24.536;2023-10-09T06:03:29;100131.47;;;14.01;62.10
39793;BME280;26080;42.264;24.536;2023-10-09T06:06:12;100130.16;;;14.09;60.74
39793;BME280;26080;42.264;24.536;2023-10-09T06:09:05;100098.28;;;13.97;59.92
39793;BME280;26080;42.264;24.536;2023-10-09T06:11:47;100144.16;;;14.29;59.69
39793;BME280;26080;42.264;24.536;2023-10-09T06:14:22;100148.56;;;14.28;58.35
39793;BME280;26080;42.264;24.536;2023-10-09T06:17:11;100168.56;;;14.32;58.82
39793;BME280;26080;42.264;24.536;2023-10-09T06:19:37;100180.97;;;14.30;58.90
39793;BME280;26080;42.264;24.536;2023-10-09T06:22:09;100173.66;;;14.35;58.88
39793;BME280;26080;42.264;24.536;2023-10-09T06:24:38;100180.53;;;14.39;57.78
39793;BME280;26080;42.264;24.536;2023-10-09T06:27:11;100185.06;;;14.36;57.41
39793;BME280;26080;42.264;24.536;2023-10-09T06:29:38;100190.91;;;14.42;57.63
39793;BME280;26080;42.264;24.536;2023-10-09T06:32:16;100189.31;;;14.38;58.61
39793;BME280;26080;42.264;24.536;2023-10-09T06:34:47;100195.81;;;14.50;58.12
39793;BME280;26080;42.264;24.536;2023-10-09T06:37:19;100192.31;;;14.49;59.82
39793;BME280;26080;42.264;24.536;2023-10-09T06:39:49;100179.41;;;14.26;57.89
39793;BME280;26080;42.264;24.536;2023-10-09T06:42:16;100188.38;;;14.22;58.55
39793;BME280;26080;42.264;24.536;2023-10-09T06:45:08;100197.34;;;14.18;58.96
39793;BME280;26080;42.264;24.536;2023-10-09T06:47:50;100213.94;;;14.20;61.53
39793;BME280;26080;42.264;24.536;2023-10-09T06:50:34;100213.00;;;14.21;59.76
39793;BME280;26080;42.264;24.536;2023-10-09T06:53:18;100210.22;;;14.24;59.29
39793;BME280;26080;42.264;24.536;2023-10-09T06:55:45;100202.47;;;14.21;60.33
39793;BME280;26080;42.264;24.536;2023-10-09T06:58:17;100191.59;;;14.10;59.50
39793;BME280;26080;42.264;24.536;2023-10-09T07:00:54;100220.56;;;14.29;59.68
39793;BME280;26080;42.264;24.536;2023-10-09T07:03:38;100214.34;;;14.30;59.26
39793;BME280;26080;42.264;24.536;2023-10-09T07:06:18;100221.34;;;14.31;59.56
39793;BME280;26080;42.264;24.536;2023-10-09T07:08:53;100219.41;;;14.34;59.72
39793;BME280;26080;42.264;24.536;2023-10-09T07:11:35;100220.81;;;14.41;60.15
39793;BME280;26080;42.264;24.536;2023-10-09T07:16:54;100229.94;;;14.53;60.91
39793;BME280;26080;42.264;24.536;2023-10-09T07:19:31;100229.78;;;14.56;61.55
39793;BME280;26080;42.264;24.536;2023-10-09T07:22:03;100239.03;;;14.65;61.06
39793;BME280;26080;42.264;24.536;2023-10-09T07:24:32;100236.56;;;14.79;60.95
39793;BME280;26080;42.264;24.536;2023-10-09T07:27:12;100228.34;;;14.85;60.66
39793;BME280;26080;42.264;24.536;2023-10-09T07:29:40;100228.28;;;14.87;61.32
39793;BME280;26080;42.264;24.536;2023-10-09T07:32:18;100233.63;;;14.85;61.26
39793;BME280;26080;42.264;24.536;2023-10-09T07:34:50;100242.06;;;14.92;61.05
39793;BME280;26080;42.264;24.536;2023-10-09T07:37:20;100242.47;;;15.01;58.96
39793;BME280;26080;42.264;24.536;2023-10-09T07:39:51;100239.31;;;14.95;61.39
39793;BME280;26080;42.264;24.536;2023-10-09T07:42:23;100240.16;;;14.95;61.50
39793;BME280;26080;42.264;24.536;2023-10-09T07:44:59;100235.50;;;15.00;62.16
39793;BME280;26080;42.264;24.536;2023-10-09T07:47:36;100232.78;;;15.02;61.39
39793;BME280;26080;42.264;24.536;2023-10-09T07:50:34;100230.34;;;15.15;59.76
39793;BME280;26080;42.264;24.536;2023-10-09T07:53:15;100234.53;;;15.19;60.17
39793;BME280;26080;42.264;24.536;2023-10-09T07:55:47;100205.38;;;15.22;58.34
39793;BME280;26080;42.264;24.536;2023-10-09T07:58:31;100225.38;;;15.26;58.34
39793;BME280;26080;42.264;24.536;2023-10-09T08:00:58;100234.69;;;15.16;59.58
39793;BME280;26080;42.264;24.536;2023-10-09T08:03:34;100241.53;;;15.20;60.56
39793;BME280;26080;42.264;24.536;2023-10-09T08:06:02;100240.53;;;15.22;60.45
39793;BME280;26080;42.264;24.536;2023-10-09T08:08:46;100224.44;;;15.27;60.11
39793;BME280;26080;42.264;24.536;2023-10-09T08:11:31;100227.78;;;15.30;60.60
39793;BME280;26080;42.264;24.536;2023-10-09T08:14:09;100207.94;;;15.23;59.68
39793;BME280;26080;42.264;24.536;2023-10-09T08:16:54;100228.16;;;15.40;59.75
39793;BME280;26080;42.264;24.536;2023-10-09T08:19:38;100228.53;;;15.50;62.03
39793;BME280;26080;42.264;24.536;2023-10-09T08:22:21;100219.34;;;15.57;59.18
39793;BME280;26080;42.264;24.536;2023-10-09T08:24:50;100222.69;;;15.60;59.70
39793;BME280;26080;42.264;24.536;2023-10-09T08:27:25;100205.00;;;15.45;60.08
39793;BME280;26080;42.264;24.536;2023-10-09T08:32:40;100212.59;;;15.68;59.41
39793;BME280;26080;42.264;24.536;2023-10-09T08:35:08;100217.19;;;15.65;59.42
39793;BME280;26080;42.264;24.536;2023-10-09T08:37:52;100208.34;;;15.66;59.72
39793;BME280;26080;42.264;24.536;2023-10-09T08:40:19;100207.91;;;15.74;59.59
39793;BME280;26080;42.264;24.536;2023-10-09T08:42:53;100203.91;;;15.82;58.78
39793;BME280;26080;42.264;24.536;2023-10-09T08:45:22;100201.19;;;15.84;60.75
39793;BME280;26080;42.264;24.536;2023-10-09T08:47:56;100205.28;;;15.89;60.33
39793;BME280;26080;42.264;24.536;2023-10-09T08:50:22;100195.06;;;15.99;60.55
39793;BME280;26080;42.264;24.536;2023-10-09T08:52:48;100192.69;;;16.10;58.63
39793;BME280;26080;42.264;24.536;2023-10-09T08:55:15;100184.56;;;16.13;59.21
39793;BME280;26080;42.264;24.536;2023-10-09T08:57:44;100180.03;;;16.15;59.55
39793;BME280;26080;42.264;24.536;2023-10-09T09:00:20;100185.00;;;16.21;58.49
39793;BME280;26080;42.264;24.536;2023-10-09T09:02:50;100179.63;;;16.23;60.78
39793;BME280;26080;42.264;24.536;2023-10-09T09:05:21;100179.03;;;16.34;61.70
39793;BME280;26080;42.264;24.536;2023-10-09T09:07:48;100177.38;;;16.47;59.78
39793;BME280;26080;42.264;24.536;2023-10-09T09:10:14;100177.59;;;16.58;58.55
39793;BME280;26080;42.264;24.536;2023-10-09T09:12:46;100175.03;;;16.56;58.64
39793;BME280;26080;42.264;24.536;2023-10-09T09:15:16;100175.56;;;16.63;59.08
39793;BME280;26080;42.264;24.536;2023-10-09T09:17:45;100179.41;;;16.73;58.80
39793;BME280;26080;42.264;24.536;2023-10-09T09:20:24;100175.06;;;16.72;57.90
39793;BME280;26080;42.264;24.536;2023-10-09T09:22:57;100158.66;;;16.66;58.73
39793;BME280;26080;42.264;24.536;2023-10-09T09:25:23;100169.16;;;16.67;58.44
39793;BME280;26080;42.264;24.536;2023-10-09T09:27:50;100137.25;;;16.54;59.42
39793;BME280;26080;42.264;24.536;2023-10-09T09:30:27;100148.59;;;16.72;58.93
39793;BME280;26080;42.264;24.536;2023-10-09T09:33:16;100153.03;;;16.56;59.58
39793;BME280;26080;42.264;24.536;2023-10-09T09:35:59;100149.06;;;16.49;59.82
39793;BME280;26080;42.264;24.536;2023-10-09T09:38:28;100154.44;;;16.47;61.11
39793;BME280;26080;42.264;24.536;2023-10-09T09:40:57;100141.16;;;16.63;62.49
39793;BME280;26080;42.264;24.536;2023-10-09T09:43:23;100140.72;;;16.71;62.22
39793;BME280;26080;42.264;24.536;2023-10-09T09:45:52;100128.22;;;16.88;61.26
39793;BME280;26080;42.264;24.536;2023-10-09T09:48:18;100123.91;;;17.02;62.84
39793;BME280;26080;42.264;24.536;2023-10-09T09:50:44;100126.34;;;17.19;60.12
39793;BME280;26080;42.264;24.536;2023-10-09T09:53:12;100113.56;;;17.26;58.38
39793;BME280;26080;42.264;24.536;2023-10-09T09:55:45;100113.56;;;17.26;58.98
39793;BME280;26080;42.264;24.536;2023-10-09T09:58:18;100106.97;;;17.33;58.80
39793;BME280;26080;42.264;24.536;2023-10-09T10:00:50;100105.91;;;17.35;60.17
39793;BME280;26080;42.264;24.536;2023-10-09T10:03:38;100097.97;;;17.50;59.70
39793;BME280;26080;42.264;24.536;2023-10-09T10:06:09;100091.25;;;17.58;57.26
39793;BME280;26080;42.264;24.536;2023-10-09T10:08:37;100082.88;;;17.64;58.50
39793;BME280;26080;42.264;24.536;2023-10-09T10:11:05;100050.28;;;17.50;57.79
39793;BME280;26080;42.264;24.536;2023-10-09T10:16:10;100065.00;;;17.68;58.15
39793;BME280;26080;42.264;24.536;2023-10-09T10:21:26;100057.91;;;17.83;56.76
39793;BME280;26080;42.264;24.536;2023-10-09T10:24:01;100054.75;;;17.90;57.88
39793;BME280;26080;42.264;24.536;2023-10-09T10:26:37;100049.06;;;17.96;57.13
39793;BME280;26080;42.264;24.536;2023-10-09T10:29:21;100056.28;;;18.07;56.17
39793;BME280;26080;42.264;24.536;2023-10-09T10:31:59;100048.84;;;17.99;56.48
39793;BME280;26080;42.264;24.536;2023-10-09T10:37:42;100037.16;;;17.89;56.66
39793;BME280;26080;42.264;24.536;2023-10-09T10:40:25;100038.25;;;17.99;58.74
39793;BME280;26080;42.264;24.536;2023-10-09T10:43:29;100023.22;;;18.13;60.60
39793;BME280;26080;42.264;24.536;2023-10-09T10:46:06;100007.53;;;18.10;57.24
39793;BME280;26080;42.264;24.536;2023-10-09T10:49:01;100016.03;;;18.27;57.63
39793;BME280;26080;42.264;24.536;2023-10-09T10:51:39;100004.03;;;18.34;57.28
39793;BME280;26080;42.264;24.536;2023-10-09T10:54:08;99998.75;;;18.47;55.11
39793;BME280;26080;42.264;24.536;2023-10-09T10:56:52;99985.50;;;18.47;54.32
39793;BME280;26080;42.264;24.536;2023-10-09T10:59:19;99968.09;;;18.30;56.43
39793;BME280;26080;42.264;24.536;2023-10-09T11:01:51;99978.31;;;18.37;54.67
39793;BME280;26080;42.264;24.536;2023-10-09T11:04:27;99952.06;;;18.06;55.16
39793;BME280;26080;42.264;24.536;2023-10-09T11:06:59;99982.31;;;18.29;55.88
39793;BME280;26080;42.264;24.536;2023-10-09T11:09:53;99987.28;;;18.34;55.52
39793;BME280;26080;42.264;24.536;2023-10-09T11:12:28;99981.69;;;18.39;54.61
39793;BME280;26080;42.264;24.536;2023-10-09T11:15:08;99976.69;;;18.47;58.16
39793;BME280;26080;42.264;24.536;2023-10-09T11:18:05;99965.69;;;18.66;53.57
39793;BME280;26080;42.264;24.536;2023-10-09T11:20:36;99963.44;;;18.72;52.33
39793;BME280;26080;42.264;24.536;2023-10-09T11:23:03;99953.16;;;18.68;52.75
39793;BME280;26080;42.264;24.536;2023-10-09T11:25:36;99937.88;;;18.71;51.56
39793;BME280;26080;42.264;24.536;2023-10-09T11:28:24;99930.44;;;18.63;51.60
39793;BME280;26080;42.264;24.536;2023-10-09T11:31:12;99929.28;;;18.68;52.24
39793;BME280;26080;42.264;24.536;2023-10-09T11:33:51;99911.22;;;18.73;55.83
39793;BME280;26080;42.264;24.536;2023-10-09T11:36:18;99904.44;;;18.81;52.78
39793;BME280;26080;42.264;24.536;2023-10-09T11:39:04;99891.56;;;18.88;50.13
39793;BME280;26080;42.264;24.536;2023-10-09T11:41:47;99899.59;;;18.99;49.94
39793;BME280;26080;42.264;24.536;2023-10-09T11:44:15;99905.88;;;18.98;50.46
39793;BME280;26080;42.264;24.536;2023-10-09T11:47:02;99896.06;;;19.11;49.01
39793;BME280;26080;42.264;24.536;2023-10-09T11:49:52;99891.59;;;19.12;53.00
39793;BME280;26080;42.264;24.536;2023-10-09T11:52:32;99889.03;;;19.10;50.63
39793;BME280;26080;42.264;24.536;2023-10-09T11:55:10;99886.94;;;19.03;50.94
39793;BME280;26080;42.264;24.536;2023-10-09T11:57:40;99895.63;;;19.05;50.98
39793;BME280;26080;42.264;24.536;2023-10-09T12:00:07;99888.81;;;19.13;49.09
39793;BME280;26080;42.264;24.536;2023-10-09T12:02:36;99869.19;;;19.03;49.54
39793;BME280;26080;42.264;24.536;2023-10-09T12:05:10;99869.72;;;19.08;52.92
39793;BME280;26080;42.264;24.536;2023-10-09T12:07:45;99872.09;;;19.24;50.93
39793;BME280;26080;42.264;24.536;2023-10-09T12:10:10;99861.38;;;19.26;50.07
39793;BME280;26080;42.264;24.536;2023-10-09T12:12:39;99832.72;;;19.18;48.38
39793;BME280;26080;42.264;24.536;2023-10-09T12:15:06;99836.25;;;19.30;48.47
39793;BME280;26080;42.264;24.536;2023-10-09T12:17:31;99826.38;;;19.32;47.76
39793;BME280;26080;42.264;24.536;2023-10-09T12:19:57;99826.72;;;19.27;49.06
39793;BME280;26080;42.264;24.536;2023-10-09T12:22:24;99821.28;;;19.29;48.21
39793;BME280;26080;42.264;24.536;2023-10-09T12:24:52;99825.44;;;19.33;50.02
39793;BME280;26080;42.264;24.536;2023-10-09T12:27:18;99824.84;;;19.40;49.02
39793;BME280;26080;42.264;24.536;2023-10-09T12:29:45;99790.16;;;19.31;51.97
39793;BME280;26080;42.264;24.536;2023-10-09T12:32:11;99811.28;;;19.56;51.26
39793;BME280;26080;42.264;24.536;2023-10-09T12:34:39;99811.06;;;19.70;47.33
39793;BME280;26080;42.264;24.536;2023-10-09T12:37:04;99810.47;;;19.67;46.77
39793;BME280;26080;42.264;24.536;2023-10-09T12:39:31;99799.94;;;19.65;46.13
39793;BME280;26080;42.264;24.536;2023-10-09T12:42:01;99807.19;;;19.63;47.19
39793;BME280;26080;42.264;24.536;2023-10-09T12:44:33;99803.19;;;19.58;47.86
39793;BME280;26080;42.264;24.536;2023-10-09T12:47:07;99809.34;;;19.58;46.44
39793;BME280;26080;42.264;24.536;2023-10-09T12:49:35;99798.94;;;19.55;49.34
39793;BME280;26080;42.264;24.536;2023-10-09T12:52:04;99804.47;;;19.52;48.49
39793;BME280;26080;42.264;24.536;2023-10-09T12:54:30;99796.28;;;19.55;47.40
39793;BME280;26080;42.264;24.536;2023-10-09T12:56:56;99781.47;;;19.64;47.65
39793;BME280;26080;42.264;24.536;2023-10-09T12:59:23;99773.13;;;19.68;47.64
39793;BME280;26080;42.264;24.536;2023-10-09T13:01:49;99767.38;;;19.74;46.02
39793;BME280;26080;42.264;24.536;2023-10-09T13:04:23;99758.53;;;19.74;46.02
39793;BME280;26080;42.264;24.536;2023-10-09T13:06:49;99765.88;;;19.70;45.70
39793;BME280;26080;42.264;24.536;2023-10-09T13:09:19;99760.56;;;19.70;46.71
39793;BME280;26080;42.264;24.536;2023-10-09T13:11:50;99748.84;;;19.73;47.10
39793;BME280;26080;42.264;24.536;2023-10-09T13:14:16;99752.34;;;19.73;46.75
39793;BME280;26080;42.264;24.536;2023-10-09T13:16:50;99747.28;;;19.70;46.33
39793;BME280;26080;42.264;24.536;2023-10-09T13:19:17;99753.09;;;19.75;47.01
39793;BME280;26080;42.264;24.536;2023-10-09T13:21:45;99740.66;;;19.76;46.37
39793;BME280;26080;42.264;24.536;2023-10-09T13:24:11;99747.06;;;19.85;46.53
39793;BME280;26080;42.264;24.536;2023-10-09T13:26:42;99738.09;;;19.86;47.80
39793;BME280;26080;42.264;24.536;2023-10-09T13:29:10;99735.22;;;20.00;45.05
39793;BME280;26080;42.264;24.536;2023-10-09T13:31:37;99738.50;;;20.03;44.61
39793;BME280;26080;42.264;24.536;2023-10-09T13:34:06;99739.94;;;19.96;44.37
39793;BME280;26080;42.264;24.536;2023-10-09T13:36:34;99722.41;;;19.94;44.36